Time;durP1;ratioP1;P1;durP2;ratioP2;P2;SDS_P1;SDS_P2;PMS_P1;PMS_P2;Temp;Humidity;BMP_temperature;BMP_pressure;BME280_temperature;BME280_humidity;BME280_pressure;Samples;Min_cycle;Max_cycle;Signal;HPM_P1;HPM_P2
2021/12/14 00:01:35;;;;;;;11.20;10.10;;;;;;;7.72;92.41;102592.53;5092194;28;20213;-81
2021/12/14 00:04:24;;;;;;;12.15;9.77;;;;;;;7.74;92.19;102590.72;5072046;28;20036;-81
2021/12/14 00:06:51;;;;;;;10.68;9.68;;;;;;;7.72;92.07;102587.22;5092468;28;20436;-82
2021/12/14 00:09:33;;;;;;;12.80;10.68;;;;;;;7.66;92.36;102581.22;5091903;28;20514;-83
2021/12/14 00:12:25;;;;;;;12.63;9.82;;;;;;;7.70;92.40;102593.47;5092208;28;20019;-83
2021/12/14 00:17:30;;;;;;;11.27;10.07;;;;;;;7.48;92.52;102556.03;5092768;28;20071;-81
2021/12/14 00:19:59;;;;;;;12.25;10.73;;;;;;;7.56;92.63;102561.13;5089246;28;20028;-81
2021/12/14 00:24:57;;;;;;;11.70;9.88;;;;;;;7.55;92.65;102576.16;5092094;28;20025;-82
2021/12/14 00:27:24;;;;;;;11.02;9.88;;;;;;;7.65;93.00;102584.78;5091855;28;20459;-79
2021/12/14 00:29:53;;;;;;;11.27;9.55;;;;;;;7.55;92.93;102564.69;5080942;28;20065;-81
2021/12/14 00:32:23;;;;;;;13.52;10.32;;;;;;;7.66;92.95;102590.03;5092410;28;20046;-81
2021/12/14 00:34:49;;;;;;;;;;;;;;;7.72;92.58;102589.00;5094732;28;20047;-83
2021/12/14 00:37:20;;;;;;;13.02;10.80;;;;;;;7.61;93.23;102585.72;5096108;28;20279;-81
2021/12/14 00:39:48;;;;;;;11.73;10.52;;;;;;;7.58;93.23;102583.16;5095167;28;20039;-82
2021/12/14 00:42:14;;;;;;;14.48;10.55;;;;;;;7.66;93.24;102605.03;5077653;28;20067;-80
2021/12/14 00:44:39;;;;;;;12.65;10.68;;;;;;;7.48;93.23;102575.41;5095639;28;20032;-82
2021/12/14 00:47:05;;;;;;;12.27;10.55;;;;;;;7.68;92.99;102614.69;5095491;28;20038;-83
2021/12/14 00:49:32;;;;;;;15.65;11.50;;;;;;;7.51;93.41;102595.66;5094934;28;20068;-81
2021/12/14 00:51:59;;;;;;;11.95;10.77;;;;;;;7.65;93.28;102619.19;5095406;28;20032;-81
2021/12/14 00:54:25;;;;;;;11.07;9.98;;;;;;;7.64;93.26;102623.59;5112618;28;20027;-81
2021/12/14 00:56:51;;;;;;;12.73;10.10;;;;;;;7.59;93.18;102621.97;5112815;28;20028;-81
2021/12/14 00:59:19;;;;;;;12.63;11.32;;;;;;;7.49;93.39;102611.56;5094975;28;20028;-81
2021/12/14 01:02:07;;;;;;;12.00;10.80;;;;;;;7.64;93.49;102631.53;5094693;28;20030;-82
2021/12/14 01:04:37;;;;;;;11.57;10.38;;;;;;;7.59;93.55;102617.56;5075637;28;20036;-81
2021/12/14 01:07:03;;;;;;;;;;;;;;;7.73;93.09;102627.81;5095975;28;20081;-82
2021/12/14 01:09:32;;;;;;;11.65;10.45;;;;;;;7.69;93.11;102624.38;5077634;28;19923;-81
2021/12/14 01:12:05;;;;;;;11.85;10.40;;;;;;;7.56;93.34;102596.44;5077065;28;20072;-80
2021/12/14 01:14:42;;;;;;;13.40;11.93;;;;;;;7.55;93.47;102592.03;5095509;28;20024;-81
2021/12/14 01:17:26;;;;;;;13.40;10.50;;;;;;;7.56;93.22;102590.25;5095191;28;20035;-81
2021/12/14 01:19:57;;;;;;;12.32;10.85;;;;;;;7.63;93.26;102608.63;5095275;28;20027;-82
2021/12/14 01:25:26;;;;;;;13.00;11.07;;;;;;;7.70;92.89;102618.16;5095147;28;20036;-81
2021/12/14 01:27:54;;;;;;;;;;;;;;;7.70;92.85;102607.56;5095430;28;20274;-80
2021/12/14 01:30:48;;;;;;;11.95;10.65;;;;;;;7.68;93.14;102597.94;5075895;28;19916;-80
2021/12/14 01:33:15;;;;;;;12.55;10.43;;;;;;;7.44;92.83;102564.94;5084446;28;20024;-81
2021/12/14 01:35:44;;;;;;;12.32;10.32;;;;;;;7.61;92.80;102601.63;5094529;28;20039;-80
2021/12/14 01:38:32;;;;;;;13.27;10.23;;;;;;;7.54;92.71;102586.78;5095145;28;20103;-81
2021/12/14 01:41:03;;;;;;;11.48;9.68;;;;;;;7.58;92.61;102585.81;5094907;28;20535;-81
2021/12/14 01:43:34;;;;;;;12.88;10.38;;;;;;;7.57;92.23;102571.69;5094267;28;20081;-80
2021/12/14 01:46:07;;;;;;;11.95;10.68;;;;;;;7.50;92.66;102583.34;5091562;28;20024;-82
2021/12/14 01:48:33;;;;;;;11.55;10.35;;;;;;;7.53;92.72;102575.34;5094169;28;20482;-80
2021/12/14 01:51:03;;;;;;;13.60;10.18;;;;;;;7.56;92.23;102585.84;5094377;28;20027;-80
2021/12/14 01:53:28;;;;;;;13.43;9.15;;;;;;;7.53;92.52;102587.66;5096958;28;20126;-81
2021/12/14 01:55:59;;;;;;;12.00;9.27;;;;;;;7.56;92.17;102584.97;5096740;28;20051;-81
2021/12/14 01:58:34;;;;;;;9.25;8.35;;;;;;;7.52;92.21;102581.50;5093785;28;20413;-80
2021/12/14 02:01:06;;;;;;;10.65;9.15;;;;;;;7.50;92.03;102570.09;5094568;28;20031;-80
2021/12/14 02:03:39;;;;;;;10.13;8.40;;;;;;;7.43;92.11;102558.75;5076048;28;20034;-81
2021/12/14 02:06:06;;;;;;;9.73;8.63;;;;;;;7.48;91.88;102578.06;5076052;28;20024;-83
2021/12/14 02:08:36;;;;;;;8.48;7.57;;;;;;;7.48;91.80;102561.31;5092150;28;20036;-80
2021/12/14 02:11:05;;;;;;;10.40;7.90;;;;;;;7.46;91.54;102553.41;5075481;28;20098;-80
2021/12/14 02:13:37;;;;;;;10.07;8.70;;;;;;;7.43;91.48;102542.00;5093946;28;20043;-80
2021/12/14 02:16:06;;;;;;;10.30;7.90;;;;;;;7.29;91.36;102534.38;5059736;28;20035;-80
2021/12/14 02:18:32;;;;;;;8.75;7.88;;;;;;;7.34;91.36;102537.78;5093227;28;20024;-81
2021/12/14 02:21:01;;;;;;;13.35;7.90;;;;;;;7.44;91.47;102560.53;5093446;28;20077;-80
2021/12/14 02:23:28;;;;;;;10.07;7.40;;;;;;;7.29;91.28;102537.03;5093729;28;20035;-82
2021/12/14 02:25:56;;;;;;;8.50;7.38;;;;;;;7.27;91.08;102538.84;5093498;28;20028;-81
2021/12/14 02:28:22;;;;;;;9.48;7.90;;;;;;;7.41;91.15;102555.31;5089850;28;20035;-81
2021/12/14 02:30:51;;;;;;;8.10;7.20;;;;;;;7.43;91.05;102560.53;5093914;28;20403;-82
2021/12/14 02:33:29;;;;;;;9.40;7.57;;;;;;;7.47;91.02;102555.16;5093772;28;20054;-81
2021/12/14 02:35:56;;;;;;;11.13;7.90;;;;;;;7.15;91.01;102515.31;5093696;28;20317;-80
2021/12/14 02:38:22;;;;;;;8.43;7.57;;;;;;;7.37;91.08;102561.56;5093881;28;20020;-81
2021/12/14 02:40:54;;;;;;;8.88;7.88;;;;;;;7.37;91.09;102569.50;5093054;28;20382;-80
2021/12/14 02:43:38;;;;;;;9.68;7.82;;;;;;;7.43;91.47;102573.78;5093537;28;20115;-81
2021/12/14 02:46:06;;;;;;;11.52;8.07;;;;;;;7.40;91.30;102581.78;5093663;28;20328;-81
2021/12/14 02:48:31;;;;;;;9.85;8.15;;;;;;;7.39;90.71;102572.97;5093329;28;20032;-79
2021/12/14 02:51:04;;;;;;;10.07;7.80;;;;;;;7.30;90.71;102559.09;5093164;28;20108;-81
2021/12/14 02:53:30;;;;;;;11.38;8.68;;;;;;;7.38;90.78;102573.00;5093413;28;20032;-83
2021/12/14 02:55:56;;;;;;;10.52;8.00;;;;;;;7.26;90.82;102555.63;5113736;28;20028;-81
2021/12/14 02:58:21;;;;;;;9.98;7.30;;;;;;;7.38;90.65;102565.97;5106431;28;20020;-81
2021/12/14 03:00:50;;;;;;;9.93;7.82;;;;;;;7.23;91.00;102535.38;5074515;28;20077;-80
2021/12/14 03:03:18;;;;;;;9.00;8.10;;;;;;;7.35;90.75;102538.66;5093348;28;20110;-82
2021/12/14 03:05:47;;;;;;;9.00;8.10;;;;;;;7.36;90.80;102543.06;5093330;28;20089;-81
2021/12/14 03:08:21;;;;;;;13.17;8.10;;;;;;;7.37;90.90;102550.97;5093142;28;20032;-81
2021/12/14 03:13:24;;;;;;;8.77;7.93;;;;;;;7.34;90.47;102532.50;5072955;28;20131;-80
2021/12/14 03:15:53;;;;;;;11.90;7.93;;;;;;;7.35;90.65;102536.88;5072892;28;20025;-81
2021/12/14 03:18:30;;;;;;;8.63;7.68;;;;;;;7.25;90.93;102511.53;5072794;28;20036;-81
2021/12/14 03:21:02;;;;;;;10.15;8.75;;;;;;;7.32;90.77;102536.94;5099048;28;20032;-80
2021/12/14 03:23:32;;;;;;;8.85;7.85;;;;;;;7.13;90.79;102475.66;5092758;28;20118;-81
2021/12/14 03:26:01;;;;;;;10.52;8.65;;;;;;;7.28;90.65;102519.41;5092642;28;20023;-81
2021/12/14 03:28:29;;;;;;;10.43;8.40;;;;;;;7.28;90.72;102519.41;5081138;28;20055;-80
2021/12/14 03:31:03;;;;;;;12.18;9.90;;;;;;;7.31;90.78;102521.13;5074040;28;20028;-81
2021/12/14 03:33:35;;;;;;;11.75;9.85;;;;;;;7.19;90.84;102503.75;5092167;28;20063;-80
2021/12/14 03:36:03;;;;;;;12.57;10.75;;;;;;;7.27;90.80;102521.19;5092554;28;20027;-83
2021/12/14 03:38:37;;;;;;;11.70;10.32;;;;;;;7.25;91.16;102522.13;5092571;28;20661;-80
2021/12/14 03:41:17;;;;;;;12.27;10.70;;;;;;;7.09;91.08;102502.19;5092597;28;20031;-81
2021/12/14 03:43:50;;;;;;;17.48;10.93;;;;;;;7.25;91.23;102520.34;5092473;28;20058;-80
2021/12/14 03:46:16;;;;;;;12.60;10.70;;;;;;;7.21;91.24;102518.69;5093036;28;20471;-80
2021/12/14 03:48:42;;;;;;;14.45;10.63;;;;;;;7.32;90.55;102520.22;5074028;28;20047;-80
2021/12/14 03:51:08;;;;;;;13.88;12.25;;;;;;;7.08;91.08;102498.69;5074234;28;20040;-82
2021/12/14 03:53:33;;;;;;;15.02;12.15;;;;;;;7.08;91.63;102514.56;5091825;28;20031;-80
2021/12/14 03:56:04;;;;;;;16.02;12.55;;;;;;;7.23;91.02;102548.59;5069607;28;20036;-80
2021/12/14 03:58:38;;;;;;;15.93;12.90;;;;;;;7.24;91.49;102571.53;5092127;28;20387;-80
2021/12/14 04:01:11;;;;;;;14.15;12.57;;;;;;;7.19;91.67;102564.59;5092463;28;20071;-80
2021/12/14 04:03:38;;;;;;;14.68;12.75;;;;;;;7.21;91.47;102562.81;5092486;28;20092;-81
2021/12/14 04:06:05;;;;;;;17.42;13.00;;;;;;;7.22;91.87;102570.69;5092412;28;20497;-81
2021/12/14 04:08:31;;;;;;;18.33;13.43;;;;;;;7.10;91.93;102559.50;5092148;28;20028;-80
2021/12/14 04:10:59;;;;;;;15.60;13.13;;;;;;;7.19;92.11;102581.34;5096383;28;20051;-80
2021/12/14 04:13:29;;;;;;;17.73;13.40;;;;;;;7.14;92.14;102567.34;5096458;28;20060;-82
2021/12/14 04:15:55;;;;;;;16.50;13.82;;;;;;;7.13;91.68;102564.72;5096495;28;20028;-81
2021/12/14 04:18:21;;;;;;;16.65;14.32;;;;;;;7.15;91.98;102555.00;5096127;28;20024;-83
2021/12/14 04:20:48;;;;;;;16.88;14.25;;;;;;;7.07;91.50;102538.41;5096440;28;20386;-81
2021/12/14 04:23:18;;;;;;;18.83;14.50;;;;;;;7.22;92.04;102554.81;5096386;28;20111;-81
2021/12/14 04:25:47;;;;;;;18.38;15.15;;;;;;;7.05;92.02;102539.28;5096187;28;20425;-81
2021/12/14 04:28:18;;;;;;;19.92;14.52;;;;;;;6.88;91.90;102514.09;5095948;28;20047;-80
2021/12/14 04:30:45;;;;;;;17.50;14.30;;;;;;;7.03;91.68;102534.97;5095757;28;20031;-81
2021/12/14 04:33:15;;;;;;;18.60;15.45;;;;;;;7.22;91.74;102570.69;5096009;28;20028;-80
2021/12/14 04:35:41;;;;;;;;;;;;;;;7.30;91.92;102569.69;5096404;28;20051;-82
2021/12/14 04:38:18;;;;;;;19.75;15.15;;;;;;;7.10;91.61;102538.34;5096177;28;19920;-80
2021/12/14 04:54:20;;;;;;;22.40;16.33;;;;;;;7.15;92.27;102544.41;5095976;28;20118;-82
2021/12/14 04:56:47;;;;;;;19.38;16.23;;;;;;;7.06;92.13;102526.97;5095751;28;20142;-80
2021/12/14 04:59:14;;;;;;;23.33;17.23;;;;;;;7.19;91.80;102546.94;5095558;28;20107;-80
2021/12/14 05:01:42;;;;;;;20.13;15.82;;;;;;;7.02;92.14;102523.47;5088512;28;20020;-81
2021/12/14 05:04:11;;;;;;;21.70;16.50;;;;;;;6.99;91.84;102514.75;5087434;28;20032;-79
2021/12/14 05:06:54;;;;;;;19.97;17.07;;;;;;;7.16;92.42;102547.00;5095357;28;20036;-81
2021/12/14 05:09:29;;;;;;;21.77;16.48;;;;;;;7.16;92.42;102549.66;5074804;28;20067;-81
2021/12/14 05:11:56;;;;;;;22.10;17.23;;;;;;;7.04;92.21;102534.91;5093034;28;20043;-81
2021/12/14 05:14:24;;;;;;;23.65;17.60;;;;;;;7.16;92.14;102543.50;5095465;28;20190;-79
2021/12/14 05:16:54;;;;;;;22.65;16.73;;;;;;;7.13;92.30;102530.34;5095357;28;20089;-81
2021/12/14 05:19:22;;;;;;;;;;;;;;;7.23;92.26;102539.81;5077420;28;20070;-80
2021/12/14 05:21:48;;;;;;;25.08;16.52;;;;;;;7.05;91.96;102514.63;5092335;28;19916;-81
2021/12/14 05:24:18;;;;;;;22.83;17.50;;;;;;;7.14;92.06;102530.28;5094942;28;20030;-83
2021/12/14 05:26:45;;;;;;;22.02;16.85;;;;;;;7.11;92.10;102532.13;5094997;28;20020;-83
2021/12/14 05:29:11;;;;;;;23.02;17.23;;;;;;;7.15;91.97;102539.13;5095057;28;20024;-81
2021/12/14 05:31:49;;;;;;;24.42;17.52;;;;;;;6.94;91.88;102504.28;5092108;28;20034;-82
2021/12/14 05:34:16;;;;;;;24.13;18.50;;;;;;;7.13;92.08;102540.91;5094657;28;20031;-80
2021/12/14 05:36:44;;;;;;;25.38;17.95;;;;;;;7.17;92.14;102538.16;5094589;28;20036;-81
2021/12/14 05:44:36;;;;;;;24.73;19.15;;;;;;;7.09;92.34;102532.19;5094740;28;20474;-80
2021/12/14 05:47:10;;;;;;;26.90;19.40;;;;;;;6.97;92.63;102516.53;5094845;28;20045;-80
2021/12/14 05:49:38;;;;;;;24.88;18.92;;;;;;;7.11;92.65;102537.44;5094065;28;20369;-81
2021/12/14 05:52:14;;;;;;;26.00;18.90;;;;;;;7.12;92.49;102545.34;5076287;28;20072;-80
2021/12/14 05:54:40;;;;;;;26.58;19.90;;;;;;;7.10;92.63;102539.22;5094405;28;20028;-81
2021/12/14 05:57:07;;;;;;;28.23;19.80;;;;;;;7.13;92.46;102548.84;5094624;28;20039;-80
2021/12/14 05:59:34;;;;;;;29.02;21.30;;;;;;;6.77;92.35;102483.47;5094163;28;20039;-82
2021/12/14 06:02:03;;;;;;;29.08;20.92;;;;;;;6.97;91.97;102513.91;5093570;28;20028;-82
2021/12/14 06:04:35;;;;;;;29.17;20.47;;;;;;;7.17;91.76;102556.69;5075976;28;20130;-81
2021/12/14 06:07:00;;;;;;;27.10;20.33;;;;;;;7.11;92.09;102562.09;5094622;28;20031;-82
2021/12/14 06:09:33;;;;;;;27.20;20.55;;;;;;;7.13;92.72;102556.78;5094205;28;20478;-81
2021/12/14 06:12:11;;;;;;;28.73;20.85;;;;;;;7.02;92.31;102542.00;5093598;28;20028;-82
2021/12/14 06:14:43;;;;;;;27.75;20.83;;;;;;;7.09;91.96;102555.09;5094599;28;20031;-81
2021/12/14 06:17:10;;;;;;;27.52;20.10;;;;;;;7.01;92.19;102553.50;5114736;28;20080;-80
2021/12/14 06:19:38;;;;;;;28.92;20.50;;;;;;;7.04;92.04;102548.13;5077820;28;20142;-81
2021/12/14 06:22:06;;;;;;;29.08;22.23;;;;;;;7.11;92.19;102571.81;5093559;28;20119;-81
2021/12/14 06:24:36;;;;;;;29.45;21.45;;;;;;;7.05;92.01;102562.22;5093735;28;20054;-79
2021/12/14 06:27:05;;;;;;;35.80;21.92;;;;;;;7.10;92.29;102573.59;5093834;28;20039;-80
2021/12/14 06:29:35;;;;;;;29.75;21.58;;;;;;;7.10;92.36;102573.59;5093639;28;20051;-81
2021/12/14 06:32:19;;;;;;;30.65;21.10;;;;;;;7.12;92.49;102566.50;5093447;28;20119;-81
2021/12/14 06:34:57;;;;;;;33.58;22.35;;;;;;;6.99;92.14;102547.34;5093615;28;20028;-79
2021/12/14 06:37:55;;;;;;;31.13;22.15;;;;;;;7.10;92.60;102575.38;5093988;28;20031;-80
2021/12/14 06:40:26;;;;;;;31.77;22.63;;;;;;;7.07;92.23;102568.38;5075335;28;20109;-81
2021/12/14 06:42:55;;;;;;;31.08;22.27;;;;;;;6.89;92.71;102553.75;5093327;28;20031;-80
2021/12/14 06:45:25;;;;;;;35.90;23.50;;;;;;;7.11;92.38;102577.13;5093575;28;20103;-81
2021/12/14 06:47:57;;;;;;;32.75;23.38;;;;;;;7.00;92.20;102553.50;5075176;28;20028;-80
2021/12/14 06:50:40;;;;;;;34.30;23.98;;;;;;;6.94;92.43;102562.47;5093092;28;20024;-81
2021/12/14 06:53:08;;;;;;;36.90;23.42;;;;;;;7.06;92.81;102579.88;5093122;28;20028;-82
2021/12/14 06:55:35;;;;;;;33.70;23.10;;;;;;;7.03;92.59;102587.88;5093079;28;20105;-81
2021/12/14 06:58:11;;;;;;;33.80;24.15;;;;;;;6.96;92.99;102573.00;5093633;28;20032;-82
2021/12/14 07:00:42;;;;;;;36.53;23.17;;;;;;;7.08;92.13;102587.75;5075206;28;20839;-82
2021/12/14 07:03:07;;;;;;;33.33;23.60;;;;;;;7.04;92.33;102601.06;5092553;28;20048;-81
2021/12/14 07:05:33;;;;;;;34.45;24.33;;;;;;;6.95;92.62;102576.56;5093174;28;20124;-81
2021/12/14 07:08:07;;;;;;;34.67;24.50;;;;;;;7.09;92.06;102600.97;5074462;28;20116;-79
2021/12/14 07:10:38;;;;;;;36.42;25.13;;;;;;;7.04;92.74;102605.47;5084719;28;20483;-82
2021/12/14 07:13:17;;;;;;;35.63;24.13;;;;;;;7.06;92.85;102595.75;5093126;28;20124;-82
2021/12/14 07:15:44;;;;;;;33.85;23.92;;;;;;;7.02;92.97;102601.97;5092974;28;20036;-80
2021/12/14 07:18:10;;;;;;;36.10;24.20;;;;;;;7.02;92.63;102599.34;5093101;28;20032;-81
2021/12/14 07:20:44;;;;;;;35.95;23.13;;;;;;;7.07;92.47;102608.06;5091888;28;20077;-82
2021/12/14 07:23:28;;;;;;;37.97;25.45;;;;;;;7.06;93.08;102616.91;5092860;28;20161;-81
2021/12/14 07:26:13;;;;;;;38.85;26.58;;;;;;;7.08;92.69;102624.81;5092379;28;20032;-79
2021/12/14 07:28:42;;;;;;;36.55;26.02;;;;;;;7.09;92.23;102627.44;5072453;28;20020;-80
2021/12/14 07:31:17;;;;;;;38.50;25.77;;;;;;;7.01;92.82;102616.13;5074692;28;20394;-81
2021/12/14 07:33:46;;;;;;;39.97;27.20;;;;;;;7.13;92.08;102634.41;5092353;28;20035;-80
2021/12/14 07:36:19;;;;;;;34.15;24.73;;;;;;;7.07;92.30;102633.66;5100329;28;20052;-80
2021/12/14 07:38:53;;;;;;;42.03;26.13;;;;;;;7.08;92.41;102638.03;5072608;28;20104;-82
2021/12/14 07:41:41;;;;;;;36.35;25.25;;;;;;;7.05;92.79;102631.03;5090519;28;20474;-80
2021/12/14 07:44:16;;;;;;;35.78;24.92;;;;;;;7.14;92.37;102635.25;5089888;28;20438;-79
2021/12/14 07:46:41;;;;;;;40.13;26.88;;;;;;;7.10;92.47;102642.41;5092583;28;20036;-82
2021/12/14 07:49:29;;;;;;;41.20;26.42;;;;;;;6.99;92.56;102621.44;5092484;28;20031;-80
2021/12/14 07:52:00;;;;;;;39.55;25.75;;;;;;;6.99;92.90;102636.44;5092680;28;20027;-80
2021/12/14 07:54:29;;;;;;;38.45;25.45;;;;;;;6.99;92.70;102639.06;5091882;28;20421;-79
2021/12/14 07:57:08;;;;;;;39.17;26.37;;;;;;;7.05;92.73;102644.25;5092789;28;20020;-81
2021/12/14 07:59:43;;;;;;;41.13;27.85;;;;;;;7.05;92.81;102655.69;5092623;28;20273;-80
2021/12/14 08:02:24;;;;;;;36.78;26.00;;;;;;;7.09;92.54;102663.56;5086610;28;20024;-79
2021/12/14 08:05:13;;;;;;;38.47;26.75;;;;;;;6.96;92.60;102653.22;5061409;28;20368;-76
2021/12/14 08:07:55;;;;;;;42.47;27.83;;;;;;;7.08;93.05;102670.66;5083536;28;20092;-78
2021/12/14 08:10:25;;;;;;;42.08;27.20;;;;;;;7.08;92.99;102673.28;5081196;28;20044;-77
2021/12/14 08:13:04;;;;;;;37.47;26.52;;;;;;;7.10;92.78;102674.13;5078553;28;20036;-76
2021/12/14 08:15:39;;;;;;;43.13;28.88;;;;;;;7.01;92.87;102653.16;5087210;28;20123;-77
2021/12/14 08:18:13;;;;;;;42.47;27.58;;;;;;;7.12;92.92;102674.09;5079562;28;20027;-76
2021/12/14 08:20:43;;;;;;;41.08;27.30;;;;;;;7.11;92.72;102667.06;5063745;28;20376;-76
2021/12/14 08:23:20;;;;;;;40.63;27.67;;;;;;;7.12;92.91;102667.06;5079670;28;20025;-80
2021/12/14 08:25:46;;;;;;;39.63;27.25;;;;;;;6.99;92.90;102647.88;5075502;28;20032;-82
2021/12/14 08:28:13;;;;;;;44.08;28.38;;;;;;;6.99;92.75;102639.94;5089641;28;20040;-81
2021/12/14 08:30:43;;;;;;;47.72;27.92;;;;;;;7.17;92.90;102674.88;5078060;28;20421;-82
2021/12/14 08:33:23;;;;;;;39.78;27.38;;;;;;;7.08;92.46;102654.78;5079268;28;20425;-82
2021/12/14 08:35:49;;;;;;;40.60;26.58;;;;;;;7.16;92.39;102674.03;5089688;28;20073;-81
2021/12/14 08:38:18;;;;;;;39.47;27.45;;;;;;;7.16;92.85;102671.38;5078445;28;20413;-82
2021/12/14 08:40:48;;;;;;;38.70;27.13;;;;;;;7.19;92.59;102675.75;5087025;28;20490;-84
2021/12/14 08:43:24;;;;;;;42.88;27.73;;;;;;;7.03;92.81;102654.00;5090788;28;20031;-81
2021/12/14 08:45:54;;;;;;;40.88;27.83;;;;;;;7.19;92.45;102681.91;5086321;28;20036;-81
2021/12/14 08:48:38;;;;;;;40.15;26.98;;;;;;;7.20;92.50;102682.75;5085983;28;20016;-81
2021/12/14 08:51:14;;;;;;;40.85;26.85;;;;;;;7.20;92.78;102680.13;5089068;28;20036;-82
2021/12/14 08:53:52;;;;;;;40.10;26.90;;;;;;;7.23;92.88;102680.06;5086512;28;20044;-82
2021/12/14 08:56:19;;;;;;;38.63;26.85;;;;;;;7.23;92.50;102674.75;5088489;28;20027;-81
2021/12/14 08:58:46;;;;;;;40.85;28.35;;;;;;;7.28;92.75;102683.50;5091650;28;20369;-81
2021/12/14 09:01:19;;;;;;;41.28;28.80;;;;;;;7.26;92.52;102688.84;5085511;28;20023;-81
2021/12/14 09:03:53;;;;;;;44.22;28.63;;;;;;;7.29;92.42;102690.53;5088415;28;20035;-80
2021/12/14 09:06:24;;;;;;;41.45;26.85;;;;;;;7.31;92.56;102687.84;5082160;28;20393;-81
2021/12/14 09:08:51;;;;;;;40.83;28.35;;;;;;;7.17;92.39;102667.81;5095140;28;20032;-81
2021/12/14 09:11:21;;;;;;;41.53;27.73;;;;;;;7.34;92.47;102701.03;5068636;28;20048;-80
2021/12/14 09:13:47;;;;;;;46.58;29.27;;;;;;;7.26;92.31;102680.00;5103548;28;20473;-79
2021/12/14 09:16:18;;;;;;;43.60;28.75;;;;;;;7.40;92.46;102701.78;5091711;28;20103;-78
2021/12/14 09:18:49;;;;;;;42.88;29.55;;;;;;;7.23;92.49;102662.41;5085453;28;20040;-83
2021/12/14 09:21:21;;;;;;;45.15;29.88;;;;;;;7.39;92.12;102678.00;5078293;28;20371;-80
2021/12/14 09:23:51;;;;;;;47.03;29.17;;;;;;;7.46;91.53;102684.91;5086487;28;20127;-82
2021/12/14 09:26:20;;;;;;;38.65;27.33;;;;;;;7.45;91.79;102689.31;5086361;28;20074;-81
2021/12/14 09:28:47;;;;;;;41.53;28.60;;;;;;;7.61;91.84;102703.09;5087574;28;20093;-79
2021/12/14 09:31:19;;;;;;;46.35;29.55;;;;;;;7.33;91.41;102652.53;5094593;28;20020;-80
2021/12/14 09:33:44;;;;;;;41.78;29.27;;;;;;;7.63;91.49;102692.50;5094364;28;20059;-84
2021/12/14 09:36:13;;;;;;;43.97;29.00;;;;;;;7.76;91.92;102698.41;5094754;28;20024;-81
2021/12/14 09:38:49;;;;;;;43.00;29.17;;;;;;;7.75;90.99;102697.53;5094982;28;20029;-81
2021/12/14 09:41:21;;;;;;;39.90;28.13;;;;;;;7.71;89.61;102664.09;5095028;28;20032;-81
2021/12/14 09:43:48;;;;;;;45.72;29.63;;;;;;;7.54;90.91;102668.88;5094585;28;20462;-81
2021/12/14 09:46:15;;;;;;;48.20;31.10;;;;;;;7.69;91.00;102693.22;5093487;28;20020;-80
2021/12/14 09:48:48;;;;;;;42.10;28.45;;;;;;;7.64;91.13;102684.50;5094162;28;20463;-81
2021/12/14 09:51:19;;;;;;;41.90;30.02;;;;;;;7.68;90.61;102674.75;5094817;28;20031;-80
2021/12/14 09:53:49;;;;;;;44.72;30.90;;;;;;;7.82;90.75;102692.97;5111556;28;20496;-82
2021/12/14 09:56:16;;;;;;;44.20;29.35;;;;;;;7.74;90.62;102669.31;5096961;28;20530;-81
2021/12/14 09:58:46;;;;;;;47.05;29.45;;;;;;;7.72;90.42;102658.75;5095665;28;20024;-82
2021/12/14 10:01:21;;;;;;;42.95;30.13;;;;;;;7.87;90.33;102681.38;5087487;28;20020;-83
2021/12/14 10:03:49;;;;;;;47.05;30.70;;;;;;;7.74;90.27;102654.28;5089227;28;21460;-81
2021/12/14 10:06:19;;;;;;;48.47;31.40;;;;;;;7.90;90.21;102678.66;5098445;28;20422;-81
2021/12/14 10:08:51;;;;;;;42.65;29.55;;;;;;;7.95;90.04;102670.59;5081086;28;20065;-79
2021/12/14 10:11:34;;;;;;;44.22;30.17;;;;;;;7.97;89.89;102664.38;5095103;28;20051;-83
2021/12/14 10:14:00;;;;;;;47.35;31.20;;;;;;;7.99;89.73;102668.75;5118874;27;20425;-81
2021/12/14 10:16:26;;;;;;;43.90;28.80;;;;;;;8.12;90.08;102671.09;5094192;28;20060;-80
2021/12/14 10:18:58;;;;;;;45.10;29.23;;;;;;;8.01;88.71;102649.28;5092169;28;20475;-83
2021/12/14 10:21:29;;;;;;;45.60;29.05;;;;;;;8.13;89.46;102678.13;5071726;28;20354;-80
2021/12/14 10:23:57;;;;;;;41.97;28.75;;;;;;;8.10;88.79;102678.19;5079879;28;20032;-80
2021/12/14 10:26:23;;;;;;;44.95;30.58;;;;;;;8.09;89.27;102675.56;5088200;28;20050;-81
2021/12/14 10:28:54;;;;;;;45.17;30.10;;;;;;;8.15;89.52;102691.34;5076259;28;20059;-80
2021/12/14 10:31:43;;;;;;;47.40;30.00;;;;;;;8.25;89.51;102686.69;5097300;28;20472;-82
2021/12/14 10:34:17;;;;;;;48.17;30.13;;;;;;;8.23;89.35;102693.81;5076580;28;20071;-80
2021/12/14 10:36:47;;;;;;;47.38;30.52;;;;;;;8.23;89.35;102691.16;5089146;28;20103;-81
2021/12/14 10:44:40;;;;;;;45.35;30.88;;;;;;;8.25;89.94;102703.47;5093605;28;20089;-80
2021/12/14 10:47:07;;;;;;;47.00;30.33;;;;;;;8.05;89.77;102664.19;5074042;28;20115;-81
2021/12/14 10:49:33;;;;;;;48.30;30.17;;;;;;;8.27;89.71;102706.97;5094571;28;20490;-81
2021/12/14 10:52:03;;;;;;;46.17;29.95;;;;;;;8.28;89.36;102707.84;5093553;28;20107;-85
2021/12/14 10:54:28;;;;;;;;;;;;;;;8.50;88.52;102701.16;5084619;28;20036;-80
2021/12/14 10:57:08;;;;;;;48.42;30.73;;;;;;;8.30;89.39;102703.38;5065613;28;19953;-81
2021/12/14 10:59:37;;;;;;;52.35;32.38;;;;;;;8.28;89.33;102699.88;5090504;28;20017;-81
2021/12/14 11:02:05;;;;;;;49.13;32.03;;;;;;;8.13;88.88;102674.59;5093196;28;20038;-83
2021/12/14 11:04:39;;;;;;;51.22;32.60;;;;;;;8.20;89.36;102700.91;5086962;28;20077;-85
2021/12/14 11:07:11;;;;;;;52.55;32.20;;;;;;;8.11;89.43;102681.72;5089893;28;20028;-82
2021/12/14 11:09:42;;;;;;;53.88;31.75;;;;;;;8.11;89.41;102668.47;5064587;28;20031;-83
2021/12/14 11:12:23;;;;;;;53.03;33.70;;;;;;;8.29;89.53;102685.72;5083271;28;20048;-82
2021/12/14 11:14:53;;;;;;;49.10;31.35;;;;;;;8.16;89.72;102672.75;5073909;28;20475;-84
2021/12/14 11:20:25;;;;;;;50.83;32.17;;;;;;;8.36;89.39;102669.63;5081727;28;20121;-80
2021/12/14 11:23:12;;;;;;;50.22;32.35;;;;;;;8.47;89.62;102656.16;5083617;28;20028;-81
2021/12/14 11:25:45;;;;;;;52.78;32.05;;;;;;;8.65;88.61;102673.38;5085767;28;20017;-84
2021/12/14 11:28:20;;;;;;;50.80;33.13;;;;;;;8.67;89.06;102679.50;5102952;28;20031;-81
2021/12/14 11:30:54;;;;;;;57.92;33.75;;;;;;;8.60;88.23;102656.69;5094202;28;20027;-81
2021/12/14 11:33:26;;;;;;;51.05;32.78;;;;;;;8.68;87.67;102664.44;5088365;28;20021;-81
2021/12/14 11:36:04;;;;;;;52.35;33.33;;;;;;;8.53;88.07;102641.84;5102363;28;20031;-81
2021/12/14 11:38:49;;;;;;;50.90;34.72;;;;;;;8.61;88.61;102656.66;5100693;28;20038;-80
2021/12/14 11:41:39;;;;;;;52.50;32.05;;;;;;;8.65;88.78;102660.13;5083097;28;20020;-84
2021/12/14 11:44:22;;;;;;;;;;;;;;;8.73;88.05;102658.09;5094981;28;20028;-83
2021/12/14 11:46:57;;;;;;;52.15;32.67;;;;;;;8.69;88.44;102659.09;5077347;28;19919;-83
2021/12/14 11:49:25;;;;;;;51.95;32.53;;;;;;;8.59;88.74;102647.00;5098320;28;20108;-81
2021/12/14 11:51:52;;;;;;;49.63;33.65;;;;;;;8.65;88.70;102660.13;5094563;28;20052;-81
2021/12/14 11:54:20;;;;;;;52.38;32.97;;;;;;;8.66;88.60;102661.84;5082292;28;20070;-82
2021/12/14 11:56:48;;;;;;;59.10;33.50;;;;;;;8.45;88.51;102630.59;5088640;28;20103;-81
2021/12/14 11:59:15;;;;;;;51.85;33.85;;;;;;;8.55;88.68;102656.81;5089123;28;20466;-81
2021/12/14 12:01:47;;;;;;;54.97;34.97;;;;;;;8.60;88.91;102662.00;5087534;28;20016;-79
2021/12/14 12:04:33;;;;;;;60.70;35.30;;;;;;;8.63;89.63;102662.78;5076472;28;20023;-83
2021/12/14 12:09:51;;;;;;;54.85;34.45;;;;;;;8.63;89.52;102659.28;5072379;28;20089;-80
2021/12/14 12:12:33;;;;;;;59.45;35.72;;;;;;;8.64;89.80;102666.31;5075317;28;20093;-82
2021/12/14 12:15:03;;;;;;;59.85;34.83;;;;;;;8.58;89.17;102661.16;5092199;28;20040;-78
2021/12/14 12:17:48;;;;;;;64.30;36.72;;;;;;;8.61;89.25;102666.38;5092058;28;20063;-79
2021/12/14 12:20:33;;;;;;;62.40;36.55;;;;;;;8.63;89.53;102661.94;5088718;28;20040;-80
2021/12/14 12:23:03;;;;;;;64.90;36.13;;;;;;;8.63;89.03;102660.13;5092265;28;20390;-82